sensor_id;sensor_type;location;lat;lon;timestamp;temperature;humidity
27026;DHT22;14565;48.626;8.978;2022-09-29T00:01:59;7.20;99.90
27026;DHT22;14565;48.626;8.978;2022-09-29T00:04:25;7.20;99.90
27026;DHT22;14565;48.626;8.978;2022-09-29T00:06:50;7.20;99.90
27026;DHT22;14565;48.626;8.978;2022-09-29T00:09:16;7.30;99.90
27026;DHT22;14565;48.626;8.978;2022-09-29T00:11:41;7.30;99.90
27026;DHT22;14565;48.626;8.978;2022-09-29T00:14:08;7.40;99.90
27026;DHT22;14565;48.626;8.978;2022-09-29T00:16:34;7.40;99.90
27026;DHT22;14565;48.626;8.978;2022-09-29T00:18:59;7.40;99.90
27026;DHT22;14565;48.626;8.978;2022-09-29T00:21:25;7.40;99.90
27026;DHT22;14565;48.626;8.978;2022-09-29T00:23:51;7.40;99.90
27026;DHT22;14565;48.626;8.978;2022-09-29T00:26:22;7.50;99.90
27026;DHT22;14565;48.626;8.978;2022-09-29T00:28:53;7.50;99.90
27026;DHT22;14565;48.626;8.978;2022-09-29T00:31:22;7.40;99.90
27026;DHT22;14565;48.626;8.978;2022-09-29T00:33:48;7.40;99.90
27026;DHT22;14565;48.626;8.978;2022-09-29T00:36:16;7.40;99.90
27026;DHT22;14565;48.626;8.978;2022-09-29T00:38:43;7.30;99.90
27026;DHT22;14565;48.626;8.978;2022-09-29T00:41:15;7.40;99.90
27026;DHT22;14565;48.626;8.978;2022-09-29T00:46:59;7.40;99.90
27026;DHT22;14565;48.626;8.978;2022-09-29T00:52:29;7.40;99.90
27026;DHT22;14565;48.626;8.978;2022-09-29T00:55:12;7.50;99.90
27026;DHT22;14565;48.626;8.978;2022-09-29T01:00:35;7.50;99.90
27026;DHT22;14565;48.626;8.978;2022-09-29T01:03:07;7.50;99.90
27026;DHT22;14565;48.626;8.978;2022-09-29T01:05:42;7.60;99.90
27026;DHT22;14565;48.626;8.978;2022-09-29T01:11:09;7.60;99.90
27026;DHT22;14565;48.626;8.978;2022-09-29T01:13:35;7.60;99.90
27026;DHT22;14565;48.626;8.978;2022-09-29T01:16:02;7.60;99.90
27026;DHT22;14565;48.626;8.978;2022-09-29T01:18:27;7.60;99.90
27026;DHT22;14565;48.626;8.978;2022-09-29T01:40:37;7.70;99.90
27026;DHT22;14565;48.626;8.978;2022-09-29T01:43:13;7.70;99.90
27026;DHT22;14565;48.626;8.978;2022-09-29T01:45:46;7.70;99.90
27026;DHT22;14565;48.626;8.978;2022-09-29T01:48:21;7.70;99.90
27026;DHT22;14565;48.626;8.978;2022-09-29T01:50:52;7.70;99.90
27026;DHT22;14565;48.626;8.978;2022-09-29T01:53:27;7.70;99.90
27026;DHT22;14565;48.626;8.978;2022-09-29T01:55:59;7.70;99.90
27026;DHT22;14565;48.626;8.978;2022-09-29T01:58:31;7.60;99.90
27026;DHT22;14565;48.626;8.978;2022-09-29T02:01:00;7.70;99.90
27026;DHT22;14565;48.626;8.978;2022-09-29T02:06:34;7.70;99.90
27026;DHT22;14565;48.626;8.978;2022-09-29T02:09:06;7.70;99.90
27026;DHT22;14565;48.626;8.978;2022-09-29T02:11:34;7.70;99.90
27026;DHT22;14565;48.626;8.978;2022-09-29T02:14:23;7.70;99.90
27026;DHT22;14565;48.626;8.978;2022-09-29T02:17:19;7.70;99.90
27026;DHT22;14565;48.626;8.978;2022-09-29T02:19:48;7.70;99.90
27026;DHT22;14565;48.626;8.978;2022-09-29T02:22:15;7.70;99.90
27026;DHT22;14565;48.626;8.978;2022-09-29T02:24:41;7.70;99.90
27026;DHT22;14565;48.626;8.978;2022-09-29T02:27:08;7.70;99.90
27026;DHT22;14565;48.626;8.978;2022-09-29T02:29:34;7.70;99.90
27026;DHT22;14565;48.626;8.978;2022-09-29T02:32:02;7.80;99.90
27026;DHT22;14565;48.626;8.978;2022-09-29T02:34:31;7.70;99.90
27026;DHT22;14565;48.626;8.978;2022-09-29T02:39:50;7.70;99.90
27026;DHT22;14565;48.626;8.978;2022-09-29T02:50:47;7.70;99.90
27026;DHT22;14565;48.626;8.978;2022-09-29T02:59:03;7.30;99.90
27026;DHT22;14565;48.626;8.978;2022-09-29T03:01:34;7.30;99.90
27026;DHT22;14565;48.626;8.978;2022-09-29T03:04:10;7.40;99.90
27026;DHT22;14565;48.626;8.978;2022-09-29T03:06:36;7.40;99.90
27026;DHT22;14565;48.626;8.978;2022-09-29T03:09:02;7.40;99.90
27026;DHT22;14565;48.626;8.978;2022-09-29T03:11:27;7.40;99.90
27026;DHT22;14565;48.626;8.978;2022-09-29T03:13:53;7.40;99.90
27026;DHT22;14565;48.626;8.978;2022-09-29T03:16:19;7.40;99.90
27026;DHT22;14565;48.626;8.978;2022-09-29T03:18:45;7.40;99.90
27026;DHT22;14565;48.626;8.978;2022-09-29T03:21:11;7.40;99.90
27026;DHT22;14565;48.626;8.978;2022-09-29T03:23:36;7.30;99.90
27026;DHT22;14565;48.626;8.978;2022-09-29T03:26:02;7.30;99.90
27026;DHT22;14565;48.626;8.978;2022-09-29T03:28:28;7.30;99.90
27026;DHT22;14565;48.626;8.978;2022-09-29T03:30:53;7.20;99.90
27026;DHT22;14565;48.626;8.978;2022-09-29T03:33:20;7.00;99.90
27026;DHT22;14565;48.626;8.978;2022-09-29T03:35:45;7.00;99.90
27026;DHT22;14565;48.626;8.978;2022-09-29T03:38:11;6.90;99.90
27026;DHT22;14565;48.626;8.978;2022-09-29T03:40:37;6.90;99.90
27026;DHT22;14565;48.626;8.978;2022-09-29T03:43:02;6.90;99.90
27026;DHT22;14565;48.626;8.978;2022-09-29T03:45:28;6.80;99.90
27026;DHT22;14565;48.626;8.978;2022-09-29T03:47:54;6.90;99.90
27026;DHT22;14565;48.626;8.978;2022-09-29T03:50:19;6.80;99.90
27026;DHT22;14565;48.626;8.978;2022-09-29T03:52:45;6.70;99.90
27026;DHT22;14565;48.626;8.978;2022-09-29T03:55:11;6.70;99.90
27026;DHT22;14565;48.626;8.978;2022-09-29T03:57:36;6.60;99.90
27026;DHT22;14565;48.626;8.978;2022-09-29T04:00:02;6.50;99.90
27026;DHT22;14565;48.626;8.978;2022-09-29T04:02:28;6.40;99.90
27026;DHT22;14565;48.626;8.978;2022-09-29T04:04:54;6.30;99.90
27026;DHT22;14565;48.626;8.978;2022-09-29T04:07:19;6.30;99.90
27026;DHT22;14565;48.626;8.978;2022-09-29T04:09:45;6.30;99.90
27026;DHT22;14565;48.626;8.978;2022-09-29T04:12:11;6.30;99.90
27026;DHT22;14565;48.626;8.978;2022-09-29T04:14:36;6.30;99.90
27026;DHT22;14565;48.626;8.978;2022-09-29T04:17:02;6.30;99.90
27026;DHT22;14565;48.626;8.978;2022-09-29T04:19:28;6.30;99.90
27026;DHT22;14565;48.626;8.978;2022-09-29T04:21:53;6.30;99.90
27026;DHT22;14565;48.626;8.978;2022-09-29T04:24:19;6.20;99.90
27026;DHT22;14565;48.626;8.978;2022-09-29T04:26:45;6.10;99.90
27026;DHT22;14565;48.626;8.978;2022-09-29T04:29:10;6.10;99.90
27026;DHT22;14565;48.626;8.978;2022-09-29T04:31:36;5.90;99.90
27026;DHT22;14565;48.626;8.978;2022-09-29T04:34:02;5.90;99.90
27026;DHT22;14565;48.626;8.978;2022-09-29T04:36:28;5.80;99.90
27026;DHT22;14565;48.626;8.978;2022-09-29T04:38:53;5.80;99.90
27026;DHT22;14565;48.626;8.978;2022-09-29T04:41:19;5.70;99.90
27026;DHT22;14565;48.626;8.978;2022-09-29T04:43:45;5.70;99.90
27026;DHT22;14565;48.626;8.978;2022-09-29T04:46:11;5.70;99.90
27026;DHT22;14565;48.626;8.978;2022-09-29T04:48:38;5.70;99.90
27026;DHT22;14565;48.626;8.978;2022-09-29T04:51:06;5.70;99.90
27026;DHT22;14565;48.626;8.978;2022-09-29T04:53:32;5.80;99.90
27026;DHT22;14565;48.626;8.978;2022-09-29T04:55:58;5.80;99.90
27026;DHT22;14565;48.626;8.978;2022-09-29T04:58:28;5.80;99.90
27026;DHT22;14565;48.626;8.978;2022-09-29T05:00:54;5.70;99.90
27026;DHT22;14565;48.626;8.978;2022-09-29T05:03:20;5.70;99.90
27026;DHT22;14565;48.626;8.978;2022-09-29T05:05:45;5.60;99.90
27026;DHT22;14565;48.626;8.978;2022-09-29T05:08:11;5.60;99.90
27026;DHT22;14565;48.626;8.978;2022-09-29T05:10:37;5.60;99.90
27026;DHT22;14565;48.626;8.978;2022-09-29T05:13:02;5.80;99.90
27026;DHT22;14565;48.626;8.978;2022-09-29T05:15:28;6.20;99.90
27026;DHT22;14565;48.626;8.978;2022-09-29T05:17:54;6.20;99.90
27026;DHT22;14565;48.626;8.978;2022-09-29T05:20:19;6.20;99.90
27026;DHT22;14565;48.626;8.978;2022-09-29T05:22:45;6.30;99.90
27026;DHT22;14565;48.626;8.978;2022-09-29T05:25:11;6.50;99.90
27026;DHT22;14565;48.626;8.978;2022-09-29T05:27:37;6.50;99.90
27026;DHT22;14565;48.626;8.978;2022-09-29T05:30:03;6.60;99.90
27026;DHT22;14565;48.626;8.978;2022-09-29T05:32:29;6.70;99.90
27026;DHT22;14565;48.626;8.978;2022-09-29T05:34:55;6.50;99.90
27026;DHT22;14565;48.626;8.978;2022-09-29T05:37:22;6.50;99.90
27026;DHT22;14565;48.626;8.978;2022-09-29T05:39:48;6.40;99.90
27026;DHT22;14565;48.626;8.978;2022-09-29T05:42:13;6.30;99.90
27026;DHT22;14565;48.626;8.978;2022-09-29T05:44:39;6.40;99.90
27026;DHT22;14565;48.626;8.978;2022-09-29T05:47:05;6.10;99.90
27026;DHT22;14565;48.626;8.978;2022-09-29T05:49:31;6.00;99.90
27026;DHT22;14565;48.626;8.978;2022-09-29T05:51:58;6.10;99.90
27026;DHT22;14565;48.626;8.978;2022-09-29T05:54:24;6.10;99.90
27026;DHT22;14565;48.626;8.978;2022-09-29T05:56:52;6.10;99.90
27026;DHT22;14565;48.626;8.978;2022-09-29T05:59:17;6.10;99.90
27026;DHT22;14565;48.626;8.978;2022-09-29T06:01:43;6.20;99.90
27026;DHT22;14565;48.626;8.978;2022-09-29T06:04:09;6.20;99.90
27026;DHT22;14565;48.626;8.978;2022-09-29T06:06:35;6.30;99.90
27026;DHT22;14565;48.626;8.978;2022-09-29T06:09:01;6.40;99.90
27026;DHT22;14565;48.626;8.978;2022-09-29T06:11:29;6.30;99.90
27026;DHT22;14565;48.626;8.978;2022-09-29T06:13:58;6.40;99.90
27026;DHT22;14565;48.626;8.978;2022-09-29T06:16:28;6.40;99.90
27026;DHT22;14565;48.626;8.978;2022-09-29T06:18:55;6.40;99.90
27026;DHT22;14565;48.626;8.978;2022-09-29T06:21:23;6.50;99.90
27026;DHT22;14565;48.626;8.978;2022-09-29T06:23:50;6.80;99.90
27026;DHT22;14565;48.626;8.978;2022-09-29T06:26:17;6.70;99.90
27026;DHT22;14565;48.626;8.978;2022-09-29T06:28:43;6.70;99.90
27026;DHT22;14565;48.626;8.978;2022-09-29T06:31:12;6.80;99.90
27026;DHT22;14565;48.626;8.978;2022-09-29T06:33:40;6.90;99.90
27026;DHT22;14565;48.626;8.978;2022-09-29T06:38:59;7.20;99.90
27026;DHT22;14565;48.626;8.978;2022-09-29T06:41:25;7.20;99.90
27026;DHT22;14565;48.626;8.978;2022-09-29T06:43:53;7.10;99.90
27026;DHT22;14565;48.626;8.978;2022-09-29T06:46:21;7.10;99.90
27026;DHT22;14565;48.626;8.978;2022-09-29T06:48:47;7.40;99.90
27026;DHT22;14565;48.626;8.978;2022-09-29T06:51:13;7.40;99.90
27026;DHT22;14565;48.626;8.978;2022-09-29T06:53:39;7.30;99.90
27026;DHT22;14565;48.626;8.978;2022-09-29T06:56:05;7.40;99.90
27026;DHT22;14565;48.626;8.978;2022-09-29T06:58:31;7.40;99.90
27026;DHT22;14565;48.626;8.978;2022-09-29T07:01:02;7.60;99.90
27026;DHT22;14565;48.626;8.978;2022-09-29T07:03:30;7.70;99.90
27026;DHT22;14565;48.626;8.978;2022-09-29T07:05:59;7.60;99.90
27026;DHT22;14565;48.626;8.978;2022-09-29T07:08:26;8.00;99.90
27026;DHT22;14565;48.626;8.978;2022-09-29T07:10:53;7.80;99.90
27026;DHT22;14565;48.626;8.978;2022-09-29T07:13:19;8.20;99.90
27026;DHT22;14565;48.626;8.978;2022-09-29T07:15:45;8.30;99.90
27026;DHT22;14565;48.626;8.978;2022-09-29T07:18:13;8.60;99.90
27026;DHT22;14565;48.626;8.978;2022-09-29T07:20:38;8.20;99.90
27026;DHT22;14565;48.626;8.978;2022-09-29T07:23:06;8.20;99.90
27026;DHT22;14565;48.626;8.978;2022-09-29T07:25:32;8.20;99.90
27026;DHT22;14565;48.626;8.978;2022-09-29T07:27:59;8.20;99.90
27026;DHT22;14565;48.626;8.978;2022-09-29T07:30:25;8.50;99.90
27026;DHT22;14565;48.626;8.978;2022-09-29T07:32:55;8.70;99.90
27026;DHT22;14565;48.626;8.978;2022-09-29T07:35:21;8.60;99.90
27026;DHT22;14565;48.626;8.978;2022-09-29T07:37:51;8.70;99.90
27026;DHT22;14565;48.626;8.978;2022-09-29T07:40:18;8.50;99.90
27026;DHT22;14565;48.626;8.978;2022-09-29T07:42:44;8.80;99.90
27026;DHT22;14565;48.626;8.978;2022-09-29T07:45:10;9.10;99.90
27026;DHT22;14565;48.626;8.978;2022-09-29T07:47:35;9.30;99.90
27026;DHT22;14565;48.626;8.978;2022-09-29T07:50:01;9.20;99.90
27026;DHT22;14565;48.626;8.978;2022-09-29T07:52:26;9.10;99.90
27026;DHT22;14565;48.626;8.978;2022-09-29T07:54:52;9.30;99.90
27026;DHT22;14565;48.626;8.978;2022-09-29T07:57:18;9.40;99.90
27026;DHT22;14565;48.626;8.978;2022-09-29T07:59:44;9.60;99.90
27026;DHT22;14565;48.626;8.978;2022-09-29T08:02:10;9.90;99.90
27026;DHT22;14565;48.626;8.978;2022-09-29T08:04:35;9.50;99.90
27026;DHT22;14565;48.626;8.978;2022-09-29T08:07:01;9.40;99.90
27026;DHT22;14565;48.626;8.978;2022-09-29T08:09:27;9.10;99.90
27026;DHT22;14565;48.626;8.978;2022-09-29T08:11:52;9.20;99.90
27026;DHT22;14565;48.626;8.978;2022-09-29T08:14:18;9.20;99.90
27026;DHT22;14565;48.626;8.978;2022-09-29T08:16:44;9.40;99.90
27026;DHT22;14565;48.626;8.978;2022-09-29T08:19:09;9.60;99.90
27026;DHT22;14565;48.626;8.978;2022-09-29T08:21:35;9.60;99.90
27026;DHT22;14565;48.626;8.978;2022-09-29T08:24:03;9.80;99.90
27026;DHT22;14565;48.626;8.978;2022-09-29T08:26:31;10.30;99.90
27026;DHT22;14565;48.626;8.978;2022-09-29T08:29:00;10.50;99.90
27026;DHT22;14565;48.626;8.978;2022-09-29T08:31:27;10.20;99.90
27026;DHT22;14565;48.626;8.978;2022-09-29T08:33:53;10.40;99.90
27026;DHT22;14565;48.626;8.978;2022-09-29T08:36:20;10.40;99.90
27026;DHT22;14565;48.626;8.978;2022-09-29T08:38:48;10.50;99.90
27026;DHT22;14565;48.626;8.978;2022-09-29T08:44:10;10.50;99.90
27026;DHT22;14565;48.626;8.978;2022-09-29T08:46:41;10.40;99.90
27026;DHT22;14565;48.626;8.978;2022-09-29T08:49:42;10.30;99.90
27026;DHT22;14565;48.626;8.978;2022-09-29T08:52:13;10.60;99.90
27026;DHT22;14565;48.626;8.978;2022-09-29T08:54:42;10.90;99.90
27026;DHT22;14565;48.626;8.978;2022-09-29T08:57:16;11.10;99.90
27026;DHT22;14565;48.626;8.978;2022-09-29T09:00:05;10.70;99.90
27026;DHT22;14565;48.626;8.978;2022-09-29T09:03:07;10.80;99.90
27026;DHT22;14565;48.626;8.978;2022-09-29T09:05:58;10.50;99.90
27026;DHT22;14565;48.626;8.978;2022-09-29T09:25:35;11.10;99.90
27026;DHT22;14565;48.626;8.978;2022-09-29T09:30:48;11.50;99.90
27026;DHT22;14565;48.626;8.978;2022-09-29T09:36:02;11.80;99.90
27026;DHT22;14565;48.626;8.978;2022-09-29T09:38:54;11.60;99.90
27026;DHT22;14565;48.626;8.978;2022-09-29T09:41:23;11.80;99.90
27026;DHT22;14565;48.626;8.978;2022-09-29T09:43:58;11.90;99.90
27026;DHT22;14565;48.626;8.978;2022-09-29T09:46:36;11.80;99.90
27026;DHT22;14565;48.626;8.978;2022-09-29T09:49:14;12.20;99.90
27026;DHT22;14565;48.626;8.978;2022-09-29T09:59:43;13.20;99.90
27026;DHT22;14565;48.626;8.978;2022-09-29T10:02:17;13.20;99.90
27026;DHT22;14565;48.626;8.978;2022-09-29T10:04:47;13.30;99.90
27026;DHT22;14565;48.626;8.978;2022-09-29T10:07:13;12.70;99.90
27026;DHT22;14565;48.626;8.978;2022-09-29T10:09:39;12.20;99.90
27026;DHT22;14565;48.626;8.978;2022-09-29T10:12:04;12.30;99.90
27026;DHT22;14565;48.626;8.978;2022-09-29T10:14:30;12.80;99.90
27026;DHT22;14565;48.626;8.978;2022-09-29T10:17:04;12.80;99.90
27026;DHT22;14565;48.626;8.978;2022-09-29T10:22:22;12.90;99.90
27026;DHT22;14565;48.626;8.978;2022-09-29T10:24:48;12.80;99.90
27026;DHT22;14565;48.626;8.978;2022-09-29T10:27:19;12.50;99.90
27026;DHT22;14565;48.626;8.978;2022-09-29T10:29:47;12.60;99.90
27026;DHT22;14565;48.626;8.978;2022-09-29T10:32:31;12.80;99.90
27026;DHT22;14565;48.626;8.978;2022-09-29T10:37:42;12.90;99.90
27026;DHT22;14565;48.626;8.978;2022-09-29T10:40:15;13.10;99.90
27026;DHT22;14565;48.626;8.978;2022-09-29T10:42:44;13.40;99.90
27026;DHT22;14565;48.626;8.978;2022-09-29T10:45:16;13.50;99.90
27026;DHT22;14565;48.626;8.978;2022-09-29T10:52:55;13.70;99.90
27026;DHT22;14565;48.626;8.978;2022-09-29T10:57:50;14.20;99.90
27026;DHT22;14565;48.626;8.978;2022-09-29T11:00:35;14.10;99.90
27026;DHT22;14565;48.626;8.978;2022-09-29T11:03:21;14.40;99.90
27026;DHT22;14565;48.626;8.978;2022-09-29T11:08:16;14.20;99.90
27026;DHT22;14565;48.626;8.978;2022-09-29T11:10:45;14.10;99.90
27026;DHT22;14565;48.626;8.978;2022-09-29T11:15:41;14.50;99.90
27026;DHT22;14565;48.626;8.978;2022-09-29T11:20:44;14.20;99.90
27026;DHT22;14565;48.626;8.978;2022-09-29T11:28:34;14.40;99.90
27026;DHT22;14565;48.626;8.978;2022-09-29T11:31:38;14.30;99.90
27026;DHT22;14565;48.626;8.978;2022-09-29T11:45:11;13.90;99.90
27026;DHT22;14565;48.626;8.978;2022-09-29T11:52:59;13.70;99.90
27026;DHT22;14565;48.626;8.978;2022-09-29T12:03:18;14.00;99.90
27026;DHT22;14565;48.626;8.978;2022-09-29T12:08:41;13.70;99.90
27026;DHT22;14565;48.626;8.978;2022-09-29T12:11:22;13.90;99.90
27026;DHT22;14565;48.626;8.978;2022-09-29T12:14:15;13.80;99.90
27026;DHT22;14565;48.626;8.978;2022-09-29T12:17:02;13.80;99.90
27026;DHT22;14565;48.626;8.978;2022-09-29T12:19:32;14.20;99.90
27026;DHT22;14565;48.626;8.978;2022-09-29T12:22:02;14.60;99.90
27026;DHT22;14565;48.626;8.978;2022-09-29T12:27:03;14.00;99.90
27026;DHT22;14565;48.626;8.978;2022-09-29T12:29:37;14.40;99.90
27026;DHT22;14565;48.626;8.978;2022-09-29T12:32:28;14.20;99.90
27026;DHT22;14565;48.626;8.978;2022-09-29T12:35:05;14.30;99.90
27026;DHT22;14565;48.626;8.978;2022-09-29T12:40:23;14.10;99.90
27026;DHT22;14565;48.626;8.978;2022-09-29T12:43:23;13.80;99.90
27026;DHT22;14565;48.626;8.978;2022-09-29T12:46:21;13.90;99.90
27026;DHT22;14565;48.626;8.978;2022-09-29T12:48:57;14.30;99.90
27026;DHT22;14565;48.626;8.978;2022-09-29T12:51:31;14.00;99.90
27026;DHT22;14565;48.626;8.978;2022-09-29T13:00:07;14.70;99.90
27026;DHT22;14565;48.626;8.978;2022-09-29T13:21:21;13.80;99.90
27026;DHT22;14565;48.626;8.978;2022-09-29T13:29:00;14.10;99.90
27026;DHT22;14565;48.626;8.978;2022-09-29T13:31:29;13.80;99.90
27026;DHT22;14565;48.626;8.978;2022-09-29T13:33:58;13.30;99.90
27026;DHT22;14565;48.626;8.978;2022-09-29T13:36:30;14.10;99.90
27026;DHT22;14565;48.626;8.978;2022-09-29T13:39:01;13.80;99.90
27026;DHT22;14565;48.626;8.978;2022-09-29T13:51:48;13.30;99.90
27026;DHT22;14565;48.626;8.978;2022-09-29T13:59:42;13.50;99.90
27026;DHT22;14565;48.626;8.978;2022-09-29T14:04:55;13.50;99.90
27026;DHT22;14565;48.626;8.978;2022-09-29T14:07:40;13.40;99.90
27026;DHT22;14565;48.626;8.978;2022-09-29T14:10:36;13.40;99.90
27026;DHT22;14565;48.626;8.978;2022-09-29T14:18:37;13.30;99.90
27026;DHT22;14565;48.626;8.978;2022-09-29T14:21:07;14.00;99.90
27026;DHT22;14565;48.626;8.978;2022-09-29T14:26:43;13.90;99.90
27026;DHT22;14565;48.626;8.978;2022-09-29T14:29:19;13.80;99.90
27026;DHT22;14565;48.626;8.978;2022-09-29T14:31:49;13.60;99.90
27026;DHT22;14565;48.626;8.978;2022-09-29T14:34:17;13.60;99.90
27026;DHT22;14565;48.626;8.978;2022-09-29T14:36:45;13.80;99.90
27026;DHT22;14565;48.626;8.978;2022-09-29T14:39:13;13.40;99.90
27026;DHT22;14565;48.626;8.978;2022-09-29T14:41:45;13.00;99.90
27026;DHT22;14565;48.626;8.978;2022-09-29T14:44:36;13.40;99.90
27026;DHT22;14565;48.626;8.978;2022-09-29T15:01:28;13.70;99.90
27026;DHT22;14565;48.626;8.978;2022-09-29T15:04:20;13.20;99.90
27026;DHT22;14565;48.626;8.978;2022-09-29T15:06:50;13.40;99.90
27026;DHT22;14565;48.626;8.978;2022-09-29T15:09:20;13.30;99.90
27026;DHT22;14565;48.626;8.978;2022-09-29T15:11:55;13.30;99.90
27026;DHT22;14565;48.626;8.978;2022-09-29T15:14:28;12.90;99.90
27026;DHT22;14565;48.626;8.978;2022-09-29T15:19:44;13.10;99.90
27026;DHT22;14565;48.626;8.978;2022-09-29T15:22:37;12.90;99.90
27026;DHT22;14565;48.626;8.978;2022-09-29T15:27:52;12.90;99.90
27026;DHT22;14565;48.626;8.978;2022-09-29T15:30:20;13.10;99.90
27026;DHT22;14565;48.626;8.978;2022-09-29T15:32:48;13.10;99.90
27026;DHT22;14565;48.626;8.978;2022-09-29T15:35:24;12.90;99.90
27026;DHT22;14565;48.626;8.978;2022-09-29T15:40:18;12.60;99.90
27026;DHT22;14565;48.626;8.978;2022-09-29T15:42:45;12.70;99.90
27026;DHT22;14565;48.626;8.978;2022-09-29T15:45:31;12.70;99.90
27026;DHT22;14565;48.626;8.978;2022-09-29T15:48:00;12.80;99.90
27026;DHT22;14565;48.626;8.978;2022-09-29T15:50:28;12.70;99.90
27026;DHT22;14565;48.626;8.978;2022-09-29T15:52:57;12.80;99.90
27026;DHT22;14565;48.626;8.978;2022-09-29T15:55:28;12.60;99.90
27026;DHT22;14565;48.626;8.978;2022-09-29T15:57:54;12.50;99.90
27026;DHT22;14565;48.626;8.978;2022-09-29T16:05:24;12.60;99.90
27026;DHT22;14565;48.626;8.978;2022-09-29T16:07:59;12.60;99.90
27026;DHT22;14565;48.626;8.978;2022-09-29T16:10:30;12.50;99.90
27026;DHT22;14565;48.626;8.978;2022-09-29T16:12:57;12.40;99.90
27026;DHT22;14565;48.626;8.978;2022-09-29T16:15:32;12.40;99.90
27026;DHT22;14565;48.626;8.978;2022-09-29T16:18:01;12.30;99.90
27026;DHT22;14565;48.626;8.978;2022-09-29T16:20:32;12.10;99.90
27026;DHT22;14565;48.626;8.978;2022-09-29T16:23:07;12.00;99.90
27026;DHT22;14565;48.626;8.978;2022-09-29T16:25:33;11.90;99.90
27026;DHT22;14565;48.626;8.978;2022-09-29T16:28:01;11.80;99.90
27026;DHT22;14565;48.626;8.978;2022-09-29T16:30:32;11.90;99.90
27026;DHT22;14565;48.626;8.978;2022-09-29T16:33:20;11.80;99.90
27026;DHT22;14565;48.626;8.978;2022-09-29T16:38:25;11.90;99.90
27026;DHT22;14565;48.626;8.978;2022-09-29T16:40:53;11.80;99.90
27026;DHT22;14565;48.626;8.978;2022-09-29T16:45:54;11.60;99.90
27026;DHT22;14565;48.626;8.978;2022-09-29T16:48:26;11.50;99.90
27026;DHT22;14565;48.626;8.978;2022-09-29T16:50:56;11.60;99.90
27026;DHT22;14565;48.626;8.978;2022-09-29T16:53:31;11.60;99.90
27026;DHT22;14565;48.626;8.978;2022-09-29T17:01:28;11.30;99.90
27026;DHT22;14565;48.626;8.978;2022-09-29T17:03:54;11.30;99.90
27026;DHT22;14565;48.626;8.978;2022-09-29T17:06:20;11.10;99.90
27026;DHT22;14565;48.626;8.978;2022-09-29T17:08:45;11.10;99.90
27026;DHT22;14565;48.626;8.978;2022-09-29T17:11:11;11.00;99.90
27026;DHT22;14565;48.626;8.978;2022-09-29T17:13:37;11.10;99.90
27026;DHT22;14565;48.626;8.978;2022-09-29T17:16:04;11.00;99.90
27026;DHT22;14565;48.626;8.978;2022-09-29T17:18:32;10.90;99.90
27026;DHT22;14565;48.626;8.978;2022-09-29T17:20:57;10.90;99.90
27026;DHT22;14565;48.626;8.978;2022-09-29T17:23:23;10.70;99.90
27026;DHT22;14565;48.626;8.978;2022-09-29T17:25:49;10.60;99.90
27026;DHT22;14565;48.626;8.978;2022-09-29T17:28:20;10.50;99.90
27026;DHT22;14565;48.626;8.978;2022-09-29T17:30:50;10.50;99.90
27026;DHT22;14565;48.626;8.978;2022-09-29T17:33:17;10.40;99.90
27026;DHT22;14565;48.626;8.978;2022-09-29T17:35:48;10.30;99.90
27026;DHT22;14565;48.626;8.978;2022-09-29T17:38:15;10.40;99.90
27026;DHT22;14565;48.626;8.978;2022-09-29T17:43:27;10.30;99.90
27026;DHT22;14565;48.626;8.978;2022-09-29T17:45:57;10.40;99.90
27026;DHT22;14565;48.626;8.978;2022-09-29T17:48:24;10.40;99.90
27026;DHT22;14565;48.626;8.978;2022-09-29T17:50:51;10.30;99.90
27026;DHT22;14565;48.626;8.978;2022-09-29T17:53:20;10.30;99.90
27026;DHT22;14565;48.626;8.978;2022-09-29T17:55:48;10.30;99.90
27026;DHT22;14565;48.626;8.978;2022-09-29T17:58:15;10.40;99.90
27026;DHT22;14565;48.626;8.978;2022-09-29T18:00:43;10.30;99.90
27026;DHT22;14565;48.626;8.978;2022-09-29T18:03:10;10.30;99.90
27026;DHT22;14565;48.626;8.978;2022-09-29T18:05:38;10.40;99.90
27026;DHT22;14565;48.626;8.978;2022-09-29T18:08:06;10.50;99.90
27026;DHT22;14565;48.626;8.978;2022-09-29T18:10:56;10.50;99.90
27026;DHT22;14565;48.626;8.978;2022-09-29T18:13:24;10.50;99.90
27026;DHT22;14565;48.626;8.978;2022-09-29T18:15:52;10.50;99.90
27026;DHT22;14565;48.626;8.978;2022-09-29T18:18:19;10.50;99.90
27026;DHT22;14565;48.626;8.978;2022-09-29T18:20:46;10.50;99.90
27026;DHT22;14565;48.626;8.978;2022-09-29T18:23:13;10.60;99.90
27026;DHT22;14565;48.626;8.978;2022-09-29T18:25:40;10.50;99.90
27026;DHT22;14565;48.626;8.978;2022-09-29T18:28:10;10.40;99.90
27026;DHT22;14565;48.626;8.978;2022-09-29T18:30:36;10.50;99.90
27026;DHT22;14565;48.626;8.978;2022-09-29T18:33:09;10.50;99.90
27026;DHT22;14565;48.626;8.978;2022-09-29T18:35:37;10.40;99.90
27026;DHT22;14565;48.626;8.978;2022-09-29T18:38:06;10.40;99.90
27026;DHT22;14565;48.626;8.978;2022-09-29T18:40:32;10.40;99.90
27026;DHT22;14565;48.626;8.978;2022-09-29T18:42:58;10.40;99.90
27026;DHT22;14565;48.626;8.978;2022-09-29T18:45:29;10.40;99.90
27026;DHT22;14565;48.626;8.978;2022-09-29T18:48:00;10.40;99.90
27026;DHT22;14565;48.626;8.978;2022-09-29T18:50:30;10.30;99.90
27026;DHT22;14565;48.626;8.978;2022-09-29T18:52:56;10.30;99.90
27026;DHT22;14565;48.626;8.978;2022-09-29T18:55:26;10.30;99.90
27026;DHT22;14565;48.626;8.978;2022-09-29T18:57:53;10.30;99.90
27026;DHT22;14565;48.626;8.978;2022-09-29T19:00:22;10.20;99.90
27026;DHT22;14565;48.626;8.978;2022-09-29T19:02:48;10.30;99.90
27026;DHT22;14565;48.626;8.978;2022-09-29T19:05:17;10.20;99.90
27026;DHT22;14565;48.626;8.978;2022-09-29T19:07:44;10.20;99.90
27026;DHT22;14565;48.626;8.978;2022-09-29T19:10:11;10.20;99.90
27026;DHT22;14565;48.626;8.978;2022-09-29T19:12:38;10.20;99.90
27026;DHT22;14565;48.626;8.978;2022-09-29T19:15:10;10.20;99.90
27026;DHT22;14565;48.626;8.978;2022-09-29T19:17:35;10.20;99.90
27026;DHT22;14565;48.626;8.978;2022-09-29T19:20:01;10.10;99.90
27026;DHT22;14565;48.626;8.978;2022-09-29T19:22:27;10.10;99.90
27026;DHT22;14565;48.626;8.978;2022-09-29T19:24:56;10.00;99.90
27026;DHT22;14565;48.626;8.978;2022-09-29T19:27:22;10.00;99.90
27026;DHT22;14565;48.626;8.978;2022-09-29T19:29:54;10.10;99.90
27026;DHT22;14565;48.626;8.978;2022-09-29T19:32:21;10.00;99.90
27026;DHT22;14565;48.626;8.978;2022-09-29T19:34:47;10.00;99.90
27026;DHT22;14565;48.626;8.978;2022-09-29T19:37:14;9.90;99.90
27026;DHT22;14565;48.626;8.978;2022-09-29T19:39:39;9.90;99.90
27026;DHT22;14565;48.626;8.978;2022-09-29T19:42:05;9.90;99.90
27026;DHT22;14565;48.626;8.978;2022-09-29T19:44:35;9.80;99.90
27026;DHT22;14565;48.626;8.978;2022-09-29T19:47:01;9.90;99.90
27026;DHT22;14565;48.626;8.978;2022-09-29T19:49:26;9.80;99.90
27026;DHT22;14565;48.626;8.978;2022-09-29T19:51:52;9.80;99.90
27026;DHT22;14565;48.626;8.978;2022-09-29T19:54:23;9.70;99.90
27026;DHT22;14565;48.626;8.978;2022-09-29T19:56:54;9.70;99.90